KAFO/AFO METAR and TAF weather

Enter ICAO airport designator
Station Type Date Time Source
KAFO METAR 2020/09/20 09:55 UTC NOAA

KAFO 200955Z AUTO 00000KT 10SM CLR 00/00 A3021 RMK AO2


Station Type Date Time Source
KAFO Decoded METAR 2020/09/20 09:55 UTC NOAA

Station name not available
Sep 20, 2020 - 05:55 AM EDT / 2020.09.20 0955 UTC
Wind: Calm:0
Visibility: 10 mile(s):0
Sky conditions: clear
Temperature: 32 F (0 C)
Dew Point: 32 F (0 C)
Relative Humidity: 100%
Pressure (altimeter): 30.21 in. Hg (1023 hPa)
ob: KAFO 200955Z AUTO 00000KT 10SM CLR 00/00 A3021 RMK AO2
cycle: 10

Station Type Date Time Source
KAFO TAF UTC NOAA

Error!

Example: see airport list